sensor_id;sensor_type;location;lat;lon;timestamp;temperature;humidity
3005;DHT22;1512;51.486;6.610;2023-09-19T00:02:16;16.90;1.00
3005;DHT22;1512;51.486;6.610;2023-09-19T00:06:25;16.90;1.00
3005;DHT22;1512;51.486;6.610;2023-09-19T00:10:35;16.80;1.00
3005;DHT22;1512;51.486;6.610;2023-09-19T00:14:44;16.80;1.00
3005;DHT22;1512;51.486;6.610;2023-09-19T00:18:53;16.80;1.00
3005;DHT22;1512;51.486;6.610;2023-09-19T00:23:01;16.70;1.00
3005;DHT22;1512;51.486;6.610;2023-09-19T00:27:14;16.70;1.00
3005;DHT22;1512;51.486;6.610;2023-09-19T00:31:22;16.70;1.00
3005;DHT22;1512;51.486;6.610;2023-09-19T00:35:32;16.60;1.00
3005;DHT22;1512;51.486;6.610;2023-09-19T00:39:41;16.60;1.00
3005;DHT22;1512;51.486;6.610;2023-09-19T00:43:49;16.50;1.00
3005;DHT22;1512;51.486;6.610;2023-09-19T00:48:00;16.50;1.00
3005;DHT22;1512;51.486;6.610;2023-09-19T00:52:12;16.40;1.00
3005;DHT22;1512;51.486;6.610;2023-09-19T00:56:21;16.40;1.00
3005;DHT22;1512;51.486;6.610;2023-09-19T01:00:30;16.40;1.00
3005;DHT22;1512;51.486;6.610;2023-09-19T01:04:41;16.30;1.00
3005;DHT22;1512;51.486;6.610;2023-09-19T01:08:50;16.30;1.00
3005;DHT22;1512;51.486;6.610;2023-09-19T01:13:05;16.30;1.00
3005;DHT22;1512;51.486;6.610;2023-09-19T01:17:25;16.30;1.00
3005;DHT22;1512;51.486;6.610;2023-09-19T01:26:35;16.20;1.00
3005;DHT22;1512;51.486;6.610;2023-09-19T01:30:43;16.20;1.00
3005;DHT22;1512;51.486;6.610;2023-09-19T01:34:56;16.10;1.00
3005;DHT22;1512;51.486;6.610;2023-09-19T01:39:09;16.10;1.00
3005;DHT22;1512;51.486;6.610;2023-09-19T01:43:27;16.10;1.00
3005;DHT22;1512;51.486;6.610;2023-09-19T01:47:41;16.00;1.00
3005;DHT22;1512;51.486;6.610;2023-09-19T01:51:57;16.00;1.00
3005;DHT22;1512;51.486;6.610;2023-09-19T01:56:08;16.00;1.00
3005;DHT22;1512;51.486;6.610;2023-09-19T02:00:18;15.90;1.00
3005;DHT22;1512;51.486;6.610;2023-09-19T02:04:29;15.90;1.00
3005;DHT22;1512;51.486;6.610;2023-09-19T02:08:38;15.80;1.00
3005;DHT22;1512;51.486;6.610;2023-09-19T02:12:47;15.80;1.00
3005;DHT22;1512;51.486;6.610;2023-09-19T02:16:56;15.80;1.00
3005;DHT22;1512;51.486;6.610;2023-09-19T02:21:04;15.80;1.00
3005;DHT22;1512;51.486;6.610;2023-09-19T02:25:14;15.80;1.00
3005;DHT22;1512;51.486;6.610;2023-09-19T02:29:23;15.80;1.00
3005;DHT22;1512;51.486;6.610;2023-09-19T02:33:32;15.70;1.00
3005;DHT22;1512;51.486;6.610;2023-09-19T02:37:41;15.70;1.00
3005;DHT22;1512;51.486;6.610;2023-09-19T02:41:50;15.70;1.00
3005;DHT22;1512;51.486;6.610;2023-09-19T02:46:18;15.70;1.00
3005;DHT22;1512;51.486;6.610;2023-09-19T02:50:27;15.80;1.00
3005;DHT22;1512;51.486;6.610;2023-09-19T02:54:36;15.70;1.00
3005;DHT22;1512;51.486;6.610;2023-09-19T02:58:44;15.80;1.00
3005;DHT22;1512;51.486;6.610;2023-09-19T03:02:54;15.70;1.00
3005;DHT22;1512;51.486;6.610;2023-09-19T03:07:04;15.70;1.00
3005;DHT22;1512;51.486;6.610;2023-09-19T03:11:14;15.70;1.00
3005;DHT22;1512;51.486;6.610;2023-09-19T03:15:23;15.70;1.00
3005;DHT22;1512;51.486;6.610;2023-09-19T03:19:32;15.60;1.00
3005;DHT22;1512;51.486;6.610;2023-09-19T03:23:41;15.60;1.00
3005;DHT22;1512;51.486;6.610;2023-09-19T03:27:51;15.60;1.00
3005;DHT22;1512;51.486;6.610;2023-09-19T03:32:00;15.50;1.00
3005;DHT22;1512;51.486;6.610;2023-09-19T03:36:09;15.50;1.00
3005;DHT22;1512;51.486;6.610;2023-09-19T03:40:19;15.50;1.00
3005;DHT22;1512;51.486;6.610;2023-09-19T03:44:29;15.50;1.00
3005;DHT22;1512;51.486;6.610;2023-09-19T03:48:38;15.50;1.00
3005;DHT22;1512;51.486;6.610;2023-09-19T03:52:47;15.50;1.00
3005;DHT22;1512;51.486;6.610;2023-09-19T03:56:56;15.40;1.00
3005;DHT22;1512;51.486;6.610;2023-09-19T04:01:05;15.40;1.00
3005;DHT22;1512;51.486;6.610;2023-09-19T04:05:14;15.40;1.00
3005;DHT22;1512;51.486;6.610;2023-09-19T04:09:23;15.30;1.00
3005;DHT22;1512;51.486;6.610;2023-09-19T04:13:31;15.30;1.00
3005;DHT22;1512;51.486;6.610;2023-09-19T04:17:40;15.30;1.00
3005;DHT22;1512;51.486;6.610;2023-09-19T04:21:49;15.20;1.00
3005;DHT22;1512;51.486;6.610;2023-09-19T04:26:03;15.20;1.00
3005;DHT22;1512;51.486;6.610;2023-09-19T04:30:08;15.20;1.00
3005;DHT22;1512;51.486;6.610;2023-09-19T04:34:22;15.10;1.00
3005;DHT22;1512;51.486;6.610;2023-09-19T04:38:31;15.20;1.00
3005;DHT22;1512;51.486;6.610;2023-09-19T04:42:41;15.20;1.00
3005;DHT22;1512;51.486;6.610;2023-09-19T04:46:49;15.20;1.00
3005;DHT22;1512;51.486;6.610;2023-09-19T04:50:58;15.20;1.00
3005;DHT22;1512;51.486;6.610;2023-09-19T04:55:08;15.20;1.00
3005;DHT22;1512;51.486;6.610;2023-09-19T04:59:18;15.20;1.00
3005;DHT22;1512;51.486;6.610;2023-09-19T05:03:27;15.20;1.00
3005;DHT22;1512;51.486;6.610;2023-09-19T05:07:35;15.20;1.00
3005;DHT22;1512;51.486;6.610;2023-09-19T05:11:44;15.20;1.00
3005;DHT22;1512;51.486;6.610;2023-09-19T05:15:53;15.20;1.00
3005;DHT22;1512;51.486;6.610;2023-09-19T05:20:02;15.20;1.00
3005;DHT22;1512;51.486;6.610;2023-09-19T05:24:23;15.20;1.00
3005;DHT22;1512;51.486;6.610;2023-09-19T05:28:34;15.20;1.00
3005;DHT22;1512;51.486;6.610;2023-09-19T05:32:43;15.20;1.00
3005;DHT22;1512;51.486;6.610;2023-09-19T05:36:52;15.20;1.00
3005;DHT22;1512;51.486;6.610;2023-09-19T05:41:02;15.30;1.00
3005;DHT22;1512;51.486;6.610;2023-09-19T05:45:11;15.30;1.00
3005;DHT22;1512;51.486;6.610;2023-09-19T05:49:20;15.40;1.00
3005;DHT22;1512;51.486;6.610;2023-09-19T05:53:29;15.50;1.00
3005;DHT22;1512;51.486;6.610;2023-09-19T05:57:38;15.50;1.00
3005;DHT22;1512;51.486;6.610;2023-09-19T06:01:46;15.50;1.00
3005;DHT22;1512;51.486;6.610;2023-09-19T06:05:55;15.50;1.00
3005;DHT22;1512;51.486;6.610;2023-09-19T06:10:05;15.60;1.00
3005;DHT22;1512;51.486;6.610;2023-09-19T06:14:15;15.60;1.00
3005;DHT22;1512;51.486;6.610;2023-09-19T06:18:25;15.60;1.00
3005;DHT22;1512;51.486;6.610;2023-09-19T06:22:36;15.70;1.00
3005;DHT22;1512;51.486;6.610;2023-09-19T06:26:45;15.70;1.00
3005;DHT22;1512;51.486;6.610;2023-09-19T06:30:55;15.80;1.00
3005;DHT22;1512;51.486;6.610;2023-09-19T06:35:05;15.70;1.00
3005;DHT22;1512;51.486;6.610;2023-09-19T06:39:18;15.70;1.00
3005;DHT22;1512;51.486;6.610;2023-09-19T06:43:27;15.80;1.00
3005;DHT22;1512;51.486;6.610;2023-09-19T06:47:37;15.80;1.00
3005;DHT22;1512;51.486;6.610;2023-09-19T06:51:46;15.80;1.00
3005;DHT22;1512;51.486;6.610;2023-09-19T06:55:56;15.90;1.00
3005;DHT22;1512;51.486;6.610;2023-09-19T07:00:06;15.90;1.00
3005;DHT22;1512;51.486;6.610;2023-09-19T07:04:16;15.90;1.00
3005;DHT22;1512;51.486;6.610;2023-09-19T07:08:26;16.00;1.00
3005;DHT22;1512;51.486;6.610;2023-09-19T07:12:36;16.00;1.00
3005;DHT22;1512;51.486;6.610;2023-09-19T07:16:44;16.00;1.00
3005;DHT22;1512;51.486;6.610;2023-09-19T07:20:56;16.00;1.00
3005;DHT22;1512;51.486;6.610;2023-09-19T07:25:07;16.10;1.00
3005;DHT22;1512;51.486;6.610;2023-09-19T07:29:35;16.20;1.00
3005;DHT22;1512;51.486;6.610;2023-09-19T07:33:45;16.20;1.00
3005;DHT22;1512;51.486;6.610;2023-09-19T07:37:54;16.30;1.00
3005;DHT22;1512;51.486;6.610;2023-09-19T07:42:04;16.30;1.00
3005;DHT22;1512;51.486;6.610;2023-09-19T07:46:14;16.40;1.00
3005;DHT22;1512;51.486;6.610;2023-09-19T07:50:23;16.40;1.00
3005;DHT22;1512;51.486;6.610;2023-09-19T07:54:33;16.50;1.00
3005;DHT22;1512;51.486;6.610;2023-09-19T07:58:43;16.50;1.00
3005;DHT22;1512;51.486;6.610;2023-09-19T08:02:53;16.50;1.00
3005;DHT22;1512;51.486;6.610;2023-09-19T08:07:04;16.50;1.00
3005;DHT22;1512;51.486;6.610;2023-09-19T08:11:13;16.50;1.00
3005;DHT22;1512;51.486;6.610;2023-09-19T08:15:23;16.60;1.00
3005;DHT22;1512;51.486;6.610;2023-09-19T08:19:32;16.60;1.00
3005;DHT22;1512;51.486;6.610;2023-09-19T08:23:41;16.70;1.00
3005;DHT22;1512;51.486;6.610;2023-09-19T08:27:50;16.70;1.00
3005;DHT22;1512;51.486;6.610;2023-09-19T08:32:00;16.70;1.00
3005;DHT22;1512;51.486;6.610;2023-09-19T08:36:08;16.80;1.00
3005;DHT22;1512;51.486;6.610;2023-09-19T08:40:17;17.00;1.00
3005;DHT22;1512;51.486;6.610;2023-09-19T08:44:27;17.10;1.00
3005;DHT22;1512;51.486;6.610;2023-09-19T08:48:41;17.20;1.00
3005;DHT22;1512;51.486;6.610;2023-09-19T08:52:51;17.30;1.00
3005;DHT22;1512;51.486;6.610;2023-09-19T08:57:05;17.40;1.00
3005;DHT22;1512;51.486;6.610;2023-09-19T09:01:19;17.50;1.00
3005;DHT22;1512;51.486;6.610;2023-09-19T09:05:33;17.50;1.00
3005;DHT22;1512;51.486;6.610;2023-09-19T09:09:44;17.70;1.00
3005;DHT22;1512;51.486;6.610;2023-09-19T09:13:53;17.80;1.00
3005;DHT22;1512;51.486;6.610;2023-09-19T09:18:03;17.80;1.00
3005;DHT22;1512;51.486;6.610;2023-09-19T09:22:12;17.90;1.00
3005;DHT22;1512;51.486;6.610;2023-09-19T09:26:41;17.90;1.00
3005;DHT22;1512;51.486;6.610;2023-09-19T09:30:58;18.00;1.00
3005;DHT22;1512;51.486;6.610;2023-09-19T09:35:08;18.10;1.00
3005;DHT22;1512;51.486;6.610;2023-09-19T09:39:29;18.10;1.00
3005;DHT22;1512;51.486;6.610;2023-09-19T09:43:40;18.00;1.00
3005;DHT22;1512;51.486;6.610;2023-09-19T09:47:51;18.10;1.00
3005;DHT22;1512;51.486;6.610;2023-09-19T09:52:07;18.20;1.00
3005;DHT22;1512;51.486;6.610;2023-09-19T09:56:19;18.20;1.00
3005;DHT22;1512;51.486;6.610;2023-09-19T10:00:27;18.30;1.00
3005;DHT22;1512;51.486;6.610;2023-09-19T10:04:38;18.60;1.00
3005;DHT22;1512;51.486;6.610;2023-09-19T10:09:04;18.80;1.00
3005;DHT22;1512;51.486;6.610;2023-09-19T10:13:15;18.90;99.90
3005;DHT22;1512;51.486;6.610;2023-09-19T10:17:25;19.00;1.00
3005;DHT22;1512;51.486;6.610;2023-09-19T10:21:36;18.90;99.90
3005;DHT22;1512;51.486;6.610;2023-09-19T10:25:48;19.00;1.00
3005;DHT22;1512;51.486;6.610;2023-09-19T10:29:57;19.20;99.90
3005;DHT22;1512;51.486;6.610;2023-09-19T10:34:08;19.10;99.90
3005;DHT22;1512;51.486;6.610;2023-09-19T10:38:27;19.00;99.90
3005;DHT22;1512;51.486;6.610;2023-09-19T10:42:33;19.00;99.90
3005;DHT22;1512;51.486;6.610;2023-09-19T10:46:44;19.00;99.90
3005;DHT22;1512;51.486;6.610;2023-09-19T10:55:15;19.30;99.90
3005;DHT22;1512;51.486;6.610;2023-09-19T10:59:26;19.40;99.90
3005;DHT22;1512;51.486;6.610;2023-09-19T11:03:36;19.60;99.90
3005;DHT22;1512;51.486;6.610;2023-09-19T11:07:59;19.60;99.90
3005;DHT22;1512;51.486;6.610;2023-09-19T11:12:12;19.70;99.90
3005;DHT22;1512;51.486;6.610;2023-09-19T11:16:21;19.90;99.90
3005;DHT22;1512;51.486;6.610;2023-09-19T11:20:31;20.10;99.90
3005;DHT22;1512;51.486;6.610;2023-09-19T11:24:47;20.00;99.90
3005;DHT22;1512;51.486;6.610;2023-09-19T11:29:24;19.70;99.90
3005;DHT22;1512;51.486;6.610;2023-09-19T11:33:29;19.60;99.90
3005;DHT22;1512;51.486;6.610;2023-09-19T11:41:59;19.90;99.90
3005;DHT22;1512;51.486;6.610;2023-09-19T11:46:08;20.30;99.90
3005;DHT22;1512;51.486;6.610;2023-09-19T11:50:20;20.40;99.90
3005;DHT22;1512;51.486;6.610;2023-09-19T11:54:29;20.20;99.90
3005;DHT22;1512;51.486;6.610;2023-09-19T11:58:41;20.10;99.90
3005;DHT22;1512;51.486;6.610;2023-09-19T12:02:51;20.20;99.90
3005;DHT22;1512;51.486;6.610;2023-09-19T12:07:02;20.20;99.90
3005;DHT22;1512;51.486;6.610;2023-09-19T12:11:15;20.30;99.90
3005;DHT22;1512;51.486;6.610;2023-09-19T12:15:27;20.40;99.90
3005;DHT22;1512;51.486;6.610;2023-09-19T12:19:37;20.70;99.90
3005;DHT22;1512;51.486;6.610;2023-09-19T12:23:57;20.80;99.90
3005;DHT22;1512;51.486;6.610;2023-09-19T12:28:06;21.00;99.90
3005;DHT22;1512;51.486;6.610;2023-09-19T12:32:17;21.10;99.90
3005;DHT22;1512;51.486;6.610;2023-09-19T12:36:27;21.10;99.90
3005;DHT22;1512;51.486;6.610;2023-09-19T12:40:41;21.20;99.90
3005;DHT22;1512;51.486;6.610;2023-09-19T12:44:51;21.10;99.90
3005;DHT22;1512;51.486;6.610;2023-09-19T12:49:21;21.00;99.90
3005;DHT22;1512;51.486;6.610;2023-09-19T12:53:30;20.80;99.90
3005;DHT22;1512;51.486;6.610;2023-09-19T12:57:41;20.70;99.90
3005;DHT22;1512;51.486;6.610;2023-09-19T13:01:52;20.50;99.90
3005;DHT22;1512;51.486;6.610;2023-09-19T13:06:03;20.40;99.90
3005;DHT22;1512;51.486;6.610;2023-09-19T13:10:13;20.40;99.90
3005;DHT22;1512;51.486;6.610;2023-09-19T13:14:27;20.40;99.90
3005;DHT22;1512;51.486;6.610;2023-09-19T13:18:51;20.50;99.90
3005;DHT22;1512;51.486;6.610;2023-09-19T13:22:58;20.60;99.90
3005;DHT22;1512;51.486;6.610;2023-09-19T13:27:11;20.60;99.90
3005;DHT22;1512;51.486;6.610;2023-09-19T13:31:20;20.60;99.90
3005;DHT22;1512;51.486;6.610;2023-09-19T13:35:29;20.60;99.90
3005;DHT22;1512;51.486;6.610;2023-09-19T13:39:38;20.60;99.90
3005;DHT22;1512;51.486;6.610;2023-09-19T13:43:48;20.50;99.90
3005;DHT22;1512;51.486;6.610;2023-09-19T13:47:57;20.50;99.90
3005;DHT22;1512;51.486;6.610;2023-09-19T13:52:07;20.40;99.90
3005;DHT22;1512;51.486;6.610;2023-09-19T13:56:15;20.40;99.90
3005;DHT22;1512;51.486;6.610;2023-09-19T14:00:24;20.30;99.90
3005;DHT22;1512;51.486;6.610;2023-09-19T14:04:33;20.30;99.90
3005;DHT22;1512;51.486;6.610;2023-09-19T14:08:46;20.20;99.90
3005;DHT22;1512;51.486;6.610;2023-09-19T14:12:55;20.10;99.90
3005;DHT22;1512;51.486;6.610;2023-09-19T14:17:06;20.10;99.90
3005;DHT22;1512;51.486;6.610;2023-09-19T14:21:15;20.00;99.90
3005;DHT22;1512;51.486;6.610;2023-09-19T14:25:24;20.10;99.90
3005;DHT22;1512;51.486;6.610;2023-09-19T14:29:33;20.10;99.90
3005;DHT22;1512;51.486;6.610;2023-09-19T14:33:41;20.20;99.90
3005;DHT22;1512;51.486;6.610;2023-09-19T14:37:51;20.10;99.90
3005;DHT22;1512;51.486;6.610;2023-09-19T14:42:00;20.10;99.90
3005;DHT22;1512;51.486;6.610;2023-09-19T14:46:09;20.10;99.90
3005;DHT22;1512;51.486;6.610;2023-09-19T14:50:18;20.00;99.90
3005;DHT22;1512;51.486;6.610;2023-09-19T14:54:27;19.90;99.90
3005;DHT22;1512;51.486;6.610;2023-09-19T14:58:37;19.80;99.90
3005;DHT22;1512;51.486;6.610;2023-09-19T15:02:48;19.80;99.90
3005;DHT22;1512;51.486;6.610;2023-09-19T15:07:00;19.70;99.90
3005;DHT22;1512;51.486;6.610;2023-09-19T15:11:11;19.70;99.90
3005;DHT22;1512;51.486;6.610;2023-09-19T15:15:20;19.70;99.90
3005;DHT22;1512;51.486;6.610;2023-09-19T15:19:29;19.80;99.90
3005;DHT22;1512;51.486;6.610;2023-09-19T15:23:39;19.80;99.90
3005;DHT22;1512;51.486;6.610;2023-09-19T15:27:48;19.80;99.90
3005;DHT22;1512;51.486;6.610;2023-09-19T15:31:57;20.00;99.90
3005;DHT22;1512;51.486;6.610;2023-09-19T15:36:09;20.10;99.90
3005;DHT22;1512;51.486;6.610;2023-09-19T15:40:18;20.20;99.90
3005;DHT22;1512;51.486;6.610;2023-09-19T15:44:27;20.30;99.90
3005;DHT22;1512;51.486;6.610;2023-09-19T15:48:35;20.20;99.90
3005;DHT22;1512;51.486;6.610;2023-09-19T15:52:45;20.10;99.90
3005;DHT22;1512;51.486;6.610;2023-09-19T15:56:54;20.10;99.90
3005;DHT22;1512;51.486;6.610;2023-09-19T16:01:08;20.10;99.90
3005;DHT22;1512;51.486;6.610;2023-09-19T16:05:16;20.00;99.90
3005;DHT22;1512;51.486;6.610;2023-09-19T16:09:25;19.90;99.90
3005;DHT22;1512;51.486;6.610;2023-09-19T16:13:33;19.90;99.90
3005;DHT22;1512;51.486;6.610;2023-09-19T16:17:42;19.80;99.90
3005;DHT22;1512;51.486;6.610;2023-09-19T16:21:51;19.80;99.90
3005;DHT22;1512;51.486;6.610;2023-09-19T16:26:07;19.90;99.90
3005;DHT22;1512;51.486;6.610;2023-09-19T16:30:20;19.80;99.90
3005;DHT22;1512;51.486;6.610;2023-09-19T16:34:29;19.80;99.90
3005;DHT22;1512;51.486;6.610;2023-09-19T16:38:41;19.80;99.90
3005;DHT22;1512;51.486;6.610;2023-09-19T16:42:50;19.80;99.90
3005;DHT22;1512;51.486;6.610;2023-09-19T16:46:58;19.70;99.90
3005;DHT22;1512;51.486;6.610;2023-09-19T16:51:09;19.70;99.90
3005;DHT22;1512;51.486;6.610;2023-09-19T16:55:18;19.70;99.90
3005;DHT22;1512;51.486;6.610;2023-09-19T16:59:28;19.50;99.90
3005;DHT22;1512;51.486;6.610;2023-09-19T17:03:37;19.50;99.90
3005;DHT22;1512;51.486;6.610;2023-09-19T17:07:49;19.50;99.90
3005;DHT22;1512;51.486;6.610;2023-09-19T17:11:58;19.50;99.90
3005;DHT22;1512;51.486;6.610;2023-09-19T17:16:08;19.50;99.90
3005;DHT22;1512;51.486;6.610;2023-09-19T17:20:17;19.40;99.90
3005;DHT22;1512;51.486;6.610;2023-09-19T17:24:26;19.30;99.90
3005;DHT22;1512;51.486;6.610;2023-09-19T17:28:36;19.30;99.90
3005;DHT22;1512;51.486;6.610;2023-09-19T17:32:45;19.30;99.90
3005;DHT22;1512;51.486;6.610;2023-09-19T17:36:54;19.20;99.90
3005;DHT22;1512;51.486;6.610;2023-09-19T17:41:04;19.20;99.90
3005;DHT22;1512;51.486;6.610;2023-09-19T17:45:14;19.20;99.90
3005;DHT22;1512;51.486;6.610;2023-09-19T17:49:24;19.20;99.90
3005;DHT22;1512;51.486;6.610;2023-09-19T17:53:32;19.10;99.90
3005;DHT22;1512;51.486;6.610;2023-09-19T17:57:43;19.10;99.90
3005;DHT22;1512;51.486;6.610;2023-09-19T18:01:53;19.10;99.90
3005;DHT22;1512;51.486;6.610;2023-09-19T18:06:02;19.10;99.90
3005;DHT22;1512;51.486;6.610;2023-09-19T18:10:10;19.10;99.90
3005;DHT22;1512;51.486;6.610;2023-09-19T18:14:21;19.00;99.90
3005;DHT22;1512;51.486;6.610;2023-09-19T18:18:31;19.00;99.90
3005;DHT22;1512;51.486;6.610;2023-09-19T18:22:40;19.00;99.90
3005;DHT22;1512;51.486;6.610;2023-09-19T18:26:48;19.00;99.90
3005;DHT22;1512;51.486;6.610;2023-09-19T18:30:57;19.00;99.90
3005;DHT22;1512;51.486;6.610;2023-09-19T18:35:06;19.00;99.90
3005;DHT22;1512;51.486;6.610;2023-09-19T18:39:15;18.90;99.90
3005;DHT22;1512;51.486;6.610;2023-09-19T18:43:25;18.90;99.90
3005;DHT22;1512;51.486;6.610;2023-09-19T18:47:34;18.80;99.90
3005;DHT22;1512;51.486;6.610;2023-09-19T18:51:42;18.90;99.90
3005;DHT22;1512;51.486;6.610;2023-09-19T18:56:06;18.90;99.90
3005;DHT22;1512;51.486;6.610;2023-09-19T19:00:15;18.80;99.90
3005;DHT22;1512;51.486;6.610;2023-09-19T19:04:24;18.80;99.90
3005;DHT22;1512;51.486;6.610;2023-09-19T19:08:35;18.80;99.90
3005;DHT22;1512;51.486;6.610;2023-09-19T19:12:44;18.80;99.90
3005;DHT22;1512;51.486;6.610;2023-09-19T19:16:54;18.80;99.90
3005;DHT22;1512;51.486;6.610;2023-09-19T19:21:03;18.70;99.90
3005;DHT22;1512;51.486;6.610;2023-09-19T19:25:13;18.70;99.90
3005;DHT22;1512;51.486;6.610;2023-09-19T19:29:22;18.70;99.90
3005;DHT22;1512;51.486;6.610;2023-09-19T19:33:31;18.70;99.90
3005;DHT22;1512;51.486;6.610;2023-09-19T19:37:40;18.70;99.90
3005;DHT22;1512;51.486;6.610;2023-09-19T19:41:48;18.70;99.90
3005;DHT22;1512;51.486;6.610;2023-09-19T19:46:00;18.70;99.90
3005;DHT22;1512;51.486;6.610;2023-09-19T19:50:09;18.70;99.90
3005;DHT22;1512;51.486;6.610;2023-09-19T19:54:18;18.70;99.90
3005;DHT22;1512;51.486;6.610;2023-09-19T19:58:27;18.60;99.90
3005;DHT22;1512;51.486;6.610;2023-09-19T20:02:36;18.60;99.90
3005;DHT22;1512;51.486;6.610;2023-09-19T20:06:45;18.60;99.90
3005;DHT22;1512;51.486;6.610;2023-09-19T20:10:59;18.60;99.90
3005;DHT22;1512;51.486;6.610;2023-09-19T20:15:04;18.60;99.90
3005;DHT22;1512;51.486;6.610;2023-09-19T20:19:15;18.60;99.90
3005;DHT22;1512;51.486;6.610;2023-09-19T20:23:24;18.60;99.90
3005;DHT22;1512;51.486;6.610;2023-09-19T20:27:33;18.60;99.90
3005;DHT22;1512;51.486;6.610;2023-09-19T20:32:01;18.50;99.90
3005;DHT22;1512;51.486;6.610;2023-09-19T20:36:10;18.50;99.90
3005;DHT22;1512;51.486;6.610;2023-09-19T20:40:21;18.50;99.90
3005;DHT22;1512;51.486;6.610;2023-09-19T20:44:30;18.50;99.90
3005;DHT22;1512;51.486;6.610;2023-09-19T20:48:39;18.50;99.90
3005;DHT22;1512;51.486;6.610;2023-09-19T20:52:49;18.40;99.90
3005;DHT22;1512;51.486;6.610;2023-09-19T20:56:58;18.40;99.90
3005;DHT22;1512;51.486;6.610;2023-09-19T21:01:08;18.40;99.90
3005;DHT22;1512;51.486;6.610;2023-09-19T21:05:18;18.40;99.90
3005;DHT22;1512;51.486;6.610;2023-09-19T21:09:27;18.30;99.90
3005;DHT22;1512;51.486;6.610;2023-09-19T21:13:36;18.40;99.90
3005;DHT22;1512;51.486;6.610;2023-09-19T21:17:46;18.40;99.90
3005;DHT22;1512;51.486;6.610;2023-09-19T21:21:55;18.30;99.90
3005;DHT22;1512;51.486;6.610;2023-09-19T21:26:23;18.30;99.90
3005;DHT22;1512;51.486;6.610;2023-09-19T21:30:32;18.30;99.90
3005;DHT22;1512;51.486;6.610;2023-09-19T21:34:41;18.30;99.90
3005;DHT22;1512;51.486;6.610;2023-09-19T21:38:50;18.30;99.90
3005;DHT22;1512;51.486;6.610;2023-09-19T21:42:59;18.30;99.90
3005;DHT22;1512;51.486;6.610;2023-09-19T21:47:07;18.30;99.90
3005;DHT22;1512;51.486;6.610;2023-09-19T21:51:17;18.30;99.90
3005;DHT22;1512;51.486;6.610;2023-09-19T21:55:27;18.20;99.90
3005;DHT22;1512;51.486;6.610;2023-09-19T21:59:36;18.20;1.00
3005;DHT22;1512;51.486;6.610;2023-09-19T22:03:45;18.20;1.00
3005;DHT22;1512;51.486;6.610;2023-09-19T22:07:54;18.30;99.90
3005;DHT22;1512;51.486;6.610;2023-09-19T22:12:03;18.30;99.90
3005;DHT22;1512;51.486;6.610;2023-09-19T22:16:15;18.30;1.00
3005;DHT22;1512;51.486;6.610;2023-09-19T22:20:24;18.30;1.00
3005;DHT22;1512;51.486;6.610;2023-09-19T22:24:37;18.30;1.00
3005;DHT22;1512;51.486;6.610;2023-09-19T22:28:48;18.30;1.00
3005;DHT22;1512;51.486;6.610;2023-09-19T22:32:58;18.30;1.00
3005;DHT22;1512;51.486;6.610;2023-09-19T22:37:08;18.30;1.00
3005;DHT22;1512;51.486;6.610;2023-09-19T22:41:19;18.20;1.00
3005;DHT22;1512;51.486;6.610;2023-09-19T22:45:29;18.20;1.00
3005;DHT22;1512;51.486;6.610;2023-09-19T22:49:38;18.20;1.00
3005;DHT22;1512;51.486;6.610;2023-09-19T22:53:49;18.20;1.00
3005;DHT22;1512;51.486;6.610;2023-09-19T22:58:03;18.20;1.00
3005;DHT22;1512;51.486;6.610;2023-09-19T23:02:11;18.20;1.00
3005;DHT22;1512;51.486;6.610;2023-09-19T23:06:21;18.20;1.00
3005;DHT22;1512;51.486;6.610;2023-09-19T23:10:51;18.20;1.00
3005;DHT22;1512;51.486;6.610;2023-09-19T23:15:00;18.20;1.00
3005;DHT22;1512;51.486;6.610;2023-09-19T23:19:10;18.10;1.00
3005;DHT22;1512;51.486;6.610;2023-09-19T23:23:36;18.10;1.00
3005;DHT22;1512;51.486;6.610;2023-09-19T23:27:47;18.10;1.00
3005;DHT22;1512;51.486;6.610;2023-09-19T23:31:57;18.10;1.00
3005;DHT22;1512;51.486;6.610;2023-09-19T23:36:06;18.00;1.00
3005;DHT22;1512;51.486;6.610;2023-09-19T23:40:17;18.00;1.00
3005;DHT22;1512;51.486;6.610;2023-09-19T23:44:27;17.90;1.00
3005;DHT22;1512;51.486;6.610;2023-09-19T23:48:36;17.90;1.00
3005;DHT22;1512;51.486;6.610;2023-09-19T23:52:47;17.90;1.00
3005;DHT22;1512;51.486;6.610;2023-09-19T23:56:56;17.80;1.00
